Time;durP1;ratioP1;P1;durP2;ratioP2;P2;SDS_P1;SDS_P2;PMS_P1;PMS_P2;Temp;Humidity;BMP_temperature;BMP_pressure;BME280_temperature;BME280_humidity;BME280_pressure;Samples;Min_cycle;Max_cycle;Signal;HPM_P1;HPM_P2
2022/04/14 00:02:12;;;;;;;147.50;73.75;;;;;;;;;;4958207;28;20121;-69
2022/04/14 00:04:39;;;;;;;144.45;70.47;;;;;;;;;;4975487;28;20054;-66
2022/04/14 00:07:06;;;;;;;139.35;69.38;;;;;;;;;;4957850;28;20111;-66
2022/04/14 00:09:35;;;;;;;132.50;66.05;;;;;;;;;;4958077;28;20069;-67
2022/04/14 00:12:01;;;;;;;119.97;64.22;;;;;;;;;;4975458;28;20101;-68
2022/04/14 00:14:27;;;;;;;125.45;63.15;;;;;;;;;;4975384;28;20134;-68
2022/04/14 00:16:53;;;;;;;123.10;61.35;;;;;;;;;;4975359;28;20061;-68
2022/04/14 00:19:20;;;;;;;135.10;61.92;;;;;;;;;;4957806;28;20045;-68
2022/04/14 00:21:46;;;;;;;118.85;61.05;;;;;;;;;;4975268;28;20027;-68
2022/04/14 00:24:12;;;;;;;124.22;61.05;;;;;;;;;;4975206;28;20114;-66
2022/04/14 00:26:38;;;;;;;123.60;62.75;;;;;;;;;;4975166;28;20027;-67
2022/04/14 00:29:05;;;;;;;124.80;61.30;;;;;;;;;;4957709;28;20039;-66
2022/04/14 00:31:31;;;;;;;100.18;50.38;;;;;;;;;;4975063;28;20062;-66
2022/04/14 00:33:57;;;;;;;103.03;49.33;;;;;;;;;;4975121;28;20187;-68
2022/04/14 00:36:23;;;;;;;84.35;43.17;;;;;;;;;;4974959;28;20034;-66
2022/04/14 00:38:49;;;;;;;63.33;33.95;;;;;;;;;;4974990;28;20118;-68
2022/04/14 00:41:17;;;;;;;61.83;31.25;;;;;;;;;;4974609;28;20453;-68
2022/04/14 00:43:43;;;;;;;50.85;26.42;;;;;;;;;;4974907;28;20030;-67
2022/04/14 00:46:10;;;;;;;57.50;31.08;;;;;;;;;;4974054;28;20026;-62
2022/04/14 00:48:36;;;;;;;74.78;38.20;;;;;;;;;;4975062;28;20437;-66
2022/04/14 00:51:06;;;;;;;81.00;39.55;;;;;;;;;;4974816;28;20023;-66
2022/04/14 00:53:32;;;;;;;81.32;38.25;;;;;;;;;;4957391;28;20030;-63
2022/04/14 00:55:58;;;;;;;77.85;39.58;;;;;;;;;;4974778;28;20059;-63
2022/04/14 00:58:26;;;;;;;81.03;39.92;;;;;;;;;;4974540;28;20055;-66
2022/04/14 01:00:52;;;;;;;74.55;39.55;;;;;;;;;;4974607;28;20118;-65
2022/04/14 01:03:18;;;;;;;72.30;36.92;;;;;;;;;;4974648;28;20022;-66
2022/04/14 01:05:46;;;;;;;74.07;35.05;;;;;;;;;;4974843;28;20383;-64
2022/04/14 01:08:16;;;;;;;74.75;38.05;;;;;;;;;;4974512;28;20096;-65
2022/04/14 01:10:49;;;;;;;72.65;35.45;;;;;;;;;;4957135;28;20491;-65
2022/04/14 01:13:16;;;;;;;61.88;30.52;;;;;;;;;;4974549;28;20476;-65
2022/04/14 01:15:43;;;;;;;81.65;41.45;;;;;;;;;;4974402;28;20057;-66
2022/04/14 01:18:10;;;;;;;75.22;35.28;;;;;;;;;;4956982;28;20494;-65
2022/04/14 01:20:36;;;;;;;64.32;35.47;;;;;;;;;;4974172;28;20436;-67
2022/04/14 01:23:03;;;;;;;62.28;33.10;;;;;;;;;;4957022;28;20034;-65
2022/04/14 01:25:32;;;;;;;65.75;34.63;;;;;;;;;;4974543;28;20161;-65
2022/04/14 01:27:58;;;;;;;66.90;32.33;;;;;;;;;;4974312;28;20041;-66
2022/04/14 01:30:24;;;;;;;58.10;30.40;;;;;;;;;;4973957;28;20113;-70
2022/04/14 01:32:51;;;;;;;63.10;32.15;;;;;;;;;;4974300;28;20102;-68
2022/04/14 01:35:17;;;;;;;61.15;30.95;;;;;;;;;;4956931;28;20034;-70
2022/04/14 01:37:43;;;;;;;57.30;28.63;;;;;;;;;;4974119;28;20031;-69
2022/04/14 01:40:10;;;;;;;58.40;26.25;;;;;;;;;;4956627;28;20450;-71
2022/04/14 01:42:36;;;;;;;62.45;28.35;;;;;;;;;;4974142;28;20019;-68
2022/04/14 01:45:03;;;;;;;58.92;26.55;;;;;;;;;;4974172;28;20090;-68
2022/04/14 01:47:29;;;;;;;59.45;26.67;;;;;;;;;;4974068;28;20027;-71
2022/04/14 01:49:55;;;;;;;50.60;25.95;;;;;;;;;;4973835;28;20486;-66
2022/04/14 01:52:30;;;;;;;58.58;27.35;;;;;;;;;;4974005;28;20081;-64
2022/04/14 01:54:56;;;;;;;48.60;25.77;;;;;;;;;;4956714;28;20031;-67
2022/04/14 01:57:22;;;;;;;48.47;25.25;;;;;;;;;;4974448;28;20121;-66
2022/04/14 01:59:49;;;;;;;41.78;23.95;;;;;;;;;;4977879;28;20122;-64
2022/04/14 02:02:15;;;;;;;42.58;22.80;;;;;;;;;;4978109;28;20106;-67
2022/04/14 02:04:42;;;;;;;42.10;22.77;;;;;;;;;;4960420;28;20073;-66
2022/04/14 02:07:09;;;;;;;44.67;23.13;;;;;;;;;;4977807;28;20070;-66
2022/04/14 02:09:36;;;;;;;42.40;22.83;;;;;;;;;;4977680;28;20026;-66
2022/04/14 02:12:04;;;;;;;44.47;23.92;;;;;;;;;;4977582;28;20027;-64
2022/04/14 02:14:30;;;;;;;38.35;23.02;;;;;;;;;;4977642;28;20035;-64
2022/04/14 02:16:56;;;;;;;36.13;21.25;;;;;;;;;;4977549;28;20110;-65
2022/04/14 02:19:22;;;;;;;44.60;22.58;;;;;;;;;;4977439;28;20125;-65
2022/04/14 02:21:49;;;;;;;39.22;22.67;;;;;;;;;;4977454;28;20041;-65
2022/04/14 02:24:15;;;;;;;44.20;22.25;;;;;;;;;;4977459;28;20070;-64
2022/04/14 02:26:41;;;;;;;44.67;22.13;;;;;;;;;;4959994;28;20027;-65
2022/04/14 02:29:08;;;;;;;52.88;25.33;;;;;;;;;;4977331;28;20539;-65
2022/04/14 02:31:34;;;;;;;51.95;25.05;;;;;;;;;;4959966;28;20031;-66
2022/04/14 02:34:00;;;;;;;66.55;25.67;;;;;;;;;;4977270;28;20038;-65
2022/04/14 02:36:26;;;;;;;51.70;24.88;;;;;;;;;;4959870;28;20472;-64
2022/04/14 02:38:52;;;;;;;61.45;27.00;;;;;;;;;;4959675;28;20039;-67
2022/04/14 02:41:19;;;;;;;48.72;23.90;;;;;;;;;;4959718;28;20166;-65
2022/04/14 02:43:45;;;;;;;52.85;25.42;;;;;;;;;;4977168;28;20022;-67
2022/04/14 02:46:11;;;;;;;41.97;24.25;;;;;;;;;;4976806;28;20031;-66
2022/04/14 02:48:37;;;;;;;48.15;24.00;;;;;;;;;;4977019;28;20093;-65
2022/04/14 02:51:03;;;;;;;52.08;23.05;;;;;;;;;;4977071;28;20030;-65
2022/04/14 02:53:29;;;;;;;42.55;22.95;;;;;;;;;;4959625;28;20037;-67
2022/04/14 02:55:56;;;;;;;44.47;22.70;;;;;;;;;;4976894;28;20044;-65
2022/04/14 02:58:22;;;;;;;52.58;23.27;;;;;;;;;;4976714;28;20050;-66
2022/04/14 03:00:49;;;;;;;50.47;23.80;;;;;;;;;;4959424;28;20034;-65
2022/04/14 03:03:16;;;;;;;54.30;25.23;;;;;;;;;;4976763;28;20026;-67
2022/04/14 03:05:42;;;;;;;49.25;21.80;;;;;;;;;;4976707;28;20027;-64
2022/04/14 03:08:08;;;;;;;46.42;22.48;;;;;;;;;;4959234;28;20458;-66
2022/04/14 03:10:35;;;;;;;58.28;24.85;;;;;;;;;;4975877;28;20033;-66
2022/04/14 03:13:01;;;;;;;62.55;26.83;;;;;;;;;;4959146;28;20030;-67
2022/04/14 03:15:27;;;;;;;64.80;26.77;;;;;;;;;;4976609;28;20030;-70
2022/04/14 03:17:53;;;;;;;70.32;27.75;;;;;;;;;;4976360;28;20129;-68
2022/04/14 03:20:21;;;;;;;62.30;26.38;;;;;;;;;;4976328;28;20066;-67
2022/04/14 03:22:47;;;;;;;55.10;26.15;;;;;;;;;;4958695;28;20030;-67
2022/04/14 03:25:14;;;;;;;54.58;24.55;;;;;;;;;;4976622;28;20026;-64
2022/04/14 03:27:40;;;;;;;51.28;22.85;;;;;;;;;;4976273;28;20014;-64
2022/04/14 03:30:08;;;;;;;46.55;21.63;;;;;;;;;;4976268;28;20027;-64
2022/04/14 03:32:47;;;;;;;51.38;21.15;;;;;;;;;;4976127;28;20041;-64
2022/04/14 03:35:14;;;;;;;48.63;21.35;;;;;;;;;;4958533;28;20023;-65
2022/04/14 03:37:41;;;;;;;39.92;19.17;;;;;;;;;;4975737;28;20392;-65
2022/04/14 03:40:08;;;;;;;52.80;21.52;;;;;;;;;;4976063;28;20383;-65
2022/04/14 03:42:35;;;;;;;57.47;22.25;;;;;;;;;;4976003;28;20031;-66
2022/04/14 03:45:02;;;;;;;61.53;23.33;;;;;;;;;;4976093;28;20492;-64
2022/04/14 03:47:28;;;;;;;47.63;22.95;;;;;;;;;;4958521;28;20106;-64
2022/04/14 03:49:55;;;;;;;61.90;25.55;;;;;;;;;;4958476;28;20027;-66
2022/04/14 03:52:21;;;;;;;83.45;30.75;;;;;;;;;;4975822;28;20472;-64
2022/04/14 03:54:47;;;;;;;56.03;25.92;;;;;;;;;;4975849;28;20037;-64
2022/04/14 03:57:13;;;;;;;58.80;23.73;;;;;;;;;;4975584;28;20062;-64
2022/04/14 03:59:39;;;;;;;50.35;22.67;;;;;;;;;;4975718;28;20030;-64
2022/04/14 04:02:06;;;;;;;60.38;22.60;;;;;;;;;;4975661;28;20027;-64
2022/04/14 04:04:32;;;;;;;37.97;18.95;;;;;;;;;;4975335;28;20449;-65
2022/04/14 04:06:59;;;;;;;32.42;16.52;;;;;;;;;;4958190;28;20383;-64
2022/04/14 04:09:26;;;;;;;32.53;16.13;;;;;;;;;;4975497;28;20035;-64
2022/04/14 04:11:53;;;;;;;54.53;21.98;;;;;;;;;;4975401;28;20041;-64
2022/04/14 04:14:20;;;;;;;45.50;20.65;;;;;;;;;;4975480;28;20034;-65
2022/04/14 04:16:47;;;;;;;45.30;20.23;;;;;;;;;;4975085;28;20466;-64
2022/04/14 04:19:13;;;;;;;55.92;22.60;;;;;;;;;;4975253;28;20039;-64
2022/04/14 04:21:39;;;;;;;51.47;19.45;;;;;;;;;;4975096;28;20106;-65
2022/04/14 04:24:05;;;;;;;48.92;20.27;;;;;;;;;;4975270;28;20138;-66
2022/04/14 04:26:32;;;;;;;69.80;21.90;;;;;;;;;;4957946;28;20022;-67
2022/04/14 04:28:58;;;;;;;63.50;21.02;;;;;;;;;;4975128;28;20490;-64
2022/04/14 04:31:24;;;;;;;75.40;21.88;;;;;;;;;;4975047;28;20034;-64
2022/04/14 04:33:51;;;;;;;58.95;21.38;;;;;;;;;;4957326;28;20037;-64
2022/04/14 04:36:18;;;;;;;47.85;19.85;;;;;;;;;;4957668;28;20027;-64
2022/04/14 04:38:44;;;;;;;71.82;21.77;;;;;;;;;;4975006;28;20027;-64
2022/04/14 04:41:10;;;;;;;55.85;21.60;;;;;;;;;;4974941;28;20089;-65
2022/04/14 04:43:36;;;;;;;64.03;20.95;;;;;;;;;;4974891;28;20077;-64
2022/04/14 04:46:03;;;;;;;63.83;23.58;;;;;;;;;;4957509;28;20121;-64
2022/04/14 04:48:29;;;;;;;66.75;23.90;;;;;;;;;;4974815;28;20031;-67
2022/04/14 04:50:55;;;;;;;60.00;23.83;;;;;;;;;;4974815;28;20038;-65
2022/04/14 04:53:21;;;;;;;54.30;22.05;;;;;;;;;;4974776;28;20122;-65
2022/04/14 04:55:48;;;;;;;48.53;19.52;;;;;;;;;;4974705;28;20019;-65
2022/04/14 04:58:14;;;;;;;48.83;20.98;;;;;;;;;;4974233;28;20105;-65
2022/04/14 05:00:41;;;;;;;47.17;19.90;;;;;;;;;;4974636;28;20105;-66
2022/04/14 05:03:09;;;;;;;49.05;20.65;;;;;;;;;;4974556;28;20030;-67
2022/04/14 05:05:35;;;;;;;60.63;22.38;;;;;;;;;;4974557;28;20391;-67
2022/04/14 05:08:02;;;;;;;49.78;21.63;;;;;;;;;;4974663;28;20543;-65
2022/04/14 05:10:29;;;;;;;56.95;22.08;;;;;;;;;;4974372;28;20037;-66
2022/04/14 05:12:55;;;;;;;51.33;21.67;;;;;;;;;;4957056;28;20101;-66
2022/04/14 05:15:21;;;;;;;47.10;21.10;;;;;;;;;;4957064;28;20862;-64
2022/04/14 05:17:47;;;;;;;56.22;22.75;;;;;;;;;;4974109;28;20432;-64
2022/04/14 05:20:14;;;;;;;59.25;23.17;;;;;;;;;;4957050;28;20027;-64
2022/04/14 05:22:40;;;;;;;41.92;19.52;;;;;;;;;;4957039;28;20122;-65
2022/04/14 05:25:06;;;;;;;46.13;19.48;;;;;;;;;;4974529;28;20026;-67
2022/04/14 05:27:32;;;;;;;38.90;20.90;;;;;;;;;;4974629;28;20113;-67
2022/04/14 05:29:58;;;;;;;51.10;26.98;;;;;;;;;;4974254;28;20038;-66
2022/04/14 05:32:25;;;;;;;51.15;28.05;;;;;;;;;;4973595;28;20023;-66
2022/04/14 05:34:51;;;;;;;50.30;26.30;;;;;;;;;;4956787;28;20072;-65
2022/04/14 05:37:17;;;;;;;59.22;28.65;;;;;;;;;;4973964;28;20062;-65
2022/04/14 05:39:43;;;;;;;52.80;28.92;;;;;;;;;;4974022;28;20093;-65
2022/04/14 05:42:09;;;;;;;61.47;30.52;;;;;;;;;;4974116;28;20037;-65
2022/04/14 05:44:35;;;;;;;155.18;73.55;;;;;;;;;;4956797;28;20065;-64
2022/04/14 05:47:01;;;;;;;146.75;67.18;;;;;;;;;;4973977;28;20150;-65
2022/04/14 05:49:28;;;;;;;100.63;48.92;;;;;;;;;;4956783;28;20085;-64
2022/04/14 05:55:04;;;;;;;63.40;35.67;;;;;;;;;;4971528;28;20558;-63
2022/04/14 05:57:30;;;;;;;82.00;42.78;;;;;;;;;;4965679;28;20043;-63
2022/04/14 05:59:57;;;;;;;91.60;48.38;;;;;;;;;;4935135;29;20524;-63
2022/04/14 06:02:23;;;;;;;117.70;60.90;;;;;;;;;;4950068;29;20036;-64
2022/04/14 06:04:49;;;;;;;141.57;73.22;;;;;;;;;;4950017;29;20034;-63
2022/04/14 06:07:15;;;;;;;141.32;70.75;;;;;;;;;;4950007;29;20059;-63
2022/04/14 06:09:41;;;;;;;134.15;73.88;;;;;;;;;;4935226;29;20039;-62
2022/04/14 06:12:08;;;;;;;117.72;68.00;;;;;;;;;;4918178;29;20119;-63
2022/04/14 06:14:34;;;;;;;122.53;66.63;;;;;;;;;;4935596;29;20384;-62
2022/04/14 06:17:01;;;;;;;113.68;65.65;;;;;;;;;;4935434;29;20060;-63
2022/04/14 06:19:27;;;;;;;115.65;62.70;;;;;;;;;;4935143;29;20457;-64
2022/04/14 06:21:53;;;;;;;95.88;54.50;;;;;;;;;;4935277;29;20027;-65
2022/04/14 06:24:19;;;;;;;96.65;54.38;;;;;;;;;;4935415;29;20032;-63
2022/04/14 06:26:45;;;;;;;72.22;42.47;;;;;;;;;;4949241;29;20119;-63
2022/04/14 06:29:11;;;;;;;81.63;42.42;;;;;;;;;;4917090;29;20035;-65
2022/04/14 06:31:38;;;;;;;78.80;44.63;;;;;;;;;;4935039;29;20067;-64
2022/04/14 06:34:07;;;;;;;77.28;42.25;;;;;;;;;;4949537;29;20043;-64
2022/04/14 06:36:33;;;;;;;73.35;42.63;;;;;;;;;;4935281;29;20024;-64
2022/04/14 06:39:00;;;;;;;70.88;41.13;;;;;;;;;;4935198;29;20046;-64
2022/04/14 06:41:26;;;;;;;68.95;41.80;;;;;;;;;;4935228;29;20028;-63
2022/04/14 06:43:53;;;;;;;65.95;38.70;;;;;;;;;;4935119;29;20027;-63
2022/04/14 06:46:20;;;;;;;67.07;40.20;;;;;;;;;;4937939;29;20032;-64
2022/04/14 06:48:46;;;;;;;70.38;41.20;;;;;;;;;;4952925;29;20110;-63
2022/04/14 06:51:13;;;;;;;59.08;34.70;;;;;;;;;;4953001;29;20036;-63
2022/04/14 06:53:43;;;;;;;61.33;35.22;;;;;;;;;;4938399;29;20110;-64
2022/04/14 06:56:10;;;;;;;61.85;34.42;;;;;;;;;;4952914;29;20070;-64
2022/04/14 06:58:36;;;;;;;63.00;34.58;;;;;;;;;;4952377;29;20040;-64
2022/04/14 07:01:03;;;;;;;61.08;34.92;;;;;;;;;;4938200;29;20364;-64
2022/04/14 07:03:30;;;;;;;59.67;33.67;;;;;;;;;;4952861;29;20115;-64
2022/04/14 07:05:56;;;;;;;57.20;33.83;;;;;;;;;;4938193;29;20020;-64
2022/04/14 07:08:26;;;;;;;48.20;27.95;;;;;;;;;;4952706;29;20043;-64
2022/04/14 07:10:52;;;;;;;59.83;30.42;;;;;;;;;;4937803;29;20045;-65
2022/04/14 07:13:19;;;;;;;44.70;27.20;;;;;;;;;;4935947;29;20520;-65
2022/04/14 07:15:46;;;;;;;51.28;30.05;;;;;;;;;;4936216;29;20107;-64
2022/04/14 07:18:11;;;;;;;56.42;30.13;;;12.40;94.10;;;;;;4950599;29;20397;-64
2022/04/14 07:20:38;;;;;;;61.30;32.05;;;12.30;91.90;;;;;;4936182;29;20045;-64
2022/04/14 07:23:05;;;;;;;59.95;32.53;;;12.50;93.70;;;;;;4935895;29;20023;-66
2022/04/14 07:25:33;;;;;;;63.13;31.90;;;12.70;93.00;;;;;;4937235;29;20020;-65
2022/04/14 07:28:00;;;;;;;55.03;27.02;;;12.80;93.30;;;;;;4937846;29;20028;-64
2022/04/14 07:30:26;;;;;;;63.95;27.35;;;13.10;93.00;;;;;;4937487;29;20107;-64
2022/04/14 07:32:53;;;;;;;51.00;25.98;;;13.30;92.30;;;;;;4937690;29;20038;-64
2022/04/14 07:35:22;;;;;;;54.22;25.55;;;13.40;90.30;;;;;;4920503;29;20035;-64
2022/04/14 07:37:49;;;;;;;57.17;27.75;;;13.60;86.70;;;;;;4937249;29;20388;-65
2022/04/14 07:40:15;;;;;;;59.70;31.65;;;13.70;87.30;;;;;;4937469;29;20098;-66
2022/04/14 07:42:43;;;;;;;51.50;26.42;;;13.90;86.60;;;;;;4937528;29;20123;-65
2022/04/14 07:45:10;;;;;;;50.33;27.15;;;14.10;82.60;;;;;;4937435;29;20107;-65
2022/04/14 07:47:37;;;;;;;63.80;33.50;;;14.30;85.20;;;;;;4937502;29;20032;-64
2022/04/14 07:50:03;;;;;;;61.95;32.92;;;14.50;82.30;;;;;;4937214;29;20376;-64
2022/04/14 07:52:29;;;;;;;53.85;29.40;;;14.70;80.70;;;;;;4937120;29;20437;-65
2022/04/14 07:54:55;;;;;;;46.30;24.63;;;15.00;84.20;;;;;;4919888;29;20023;-64
2022/04/14 07:57:21;;;;;;;37.20;19.73;;;15.10;76.30;;;;;;4936790;29;20513;-66
2022/04/14 07:59:46;;;;;;;34.40;17.15;;;15.30;80.90;;;;;;4937192;29;20035;-65
2022/04/14 08:02:12;;;;;;;38.33;16.08;;;;;;;;;;4936921;29;20405;-65
2022/04/14 08:04:38;;;;;;;24.58;14.20;;;15.70;73.90;;;;;;4937093;29;20373;-64
2022/04/14 08:07:05;;;;;;;25.15;14.32;;;15.90;74.20;;;;;;4937165;29;20086;-65
2022/04/14 08:09:31;;;;;;;24.67;12.77;;;16.10;72.70;;;;;;4925155;29;20031;-66
2022/04/14 08:11:56;;;;;;;22.02;12.50;;;16.20;72.00;;;;;;4955871;29;20488;-65
2022/04/14 08:14:22;;;;;;;17.63;10.45;;;16.50;72.60;;;;;;4938705;29;20031;-65
2022/04/14 08:16:48;;;;;;;24.52;11.90;;;16.70;68.50;;;;;;4939072;29;20028;-64
2022/04/14 08:19:14;;;;;;;16.20;8.07;;;16.90;69.50;;;;;;4955947;29;20090;-65
2022/04/14 08:21:40;;;;;;;15.52;9.25;;;17.00;64.20;;;;;;4939243;29;20036;-64
2022/04/14 08:24:06;;;;;;;16.38;8.95;;;17.10;64.80;;;;;;4919507;29;20387;-68
2022/04/14 08:26:36;;;;;;;16.00;7.10;;;17.30;69.50;;;;;;4936476;29;20075;-68
2022/04/14 08:29:02;;;;;;;12.93;7.68;;;17.50;67.30;;;;;;4919731;29;20484;-64
2022/04/14 08:31:28;;;;;;;26.13;6.90;;;17.60;64.80;;;;;;4936535;29;20067;-65
2022/04/14 08:33:55;;;;;;;12.88;5.88;;;17.90;64.40;;;;;;4935934;29;20453;-68
2022/04/14 08:36:21;;;;;;;16.58;6.80;;;18.00;61.50;;;;;;4935972;29;20032;-67
2022/04/14 08:38:50;;;;;;;9.05;5.18;;;18.20;63.90;;;;;;4936486;29;20361;-64
2022/04/14 08:41:19;;;;;;;6.57;3.95;;;18.40;57.50;;;;;;4936444;29;20027;-65
2022/04/14 08:43:51;;;;;;;9.10;4.35;;;18.50;56.90;;;;;;4936413;29;20031;-67
2022/04/14 08:46:19;;;;;;;17.05;4.18;;;18.60;55.40;;;;;;4936304;29;20034;-64
2022/04/14 08:48:50;;;;;;;7.78;2.97;;;18.70;54.50;;;;;;4936341;29;20756;-67
2022/04/14 08:51:17;;;;;;;30.13;5.80;;;18.90;52.70;;;;;;4919386;29;20438;-67
2022/04/14 08:53:44;;;;;;;8.73;3.67;;;19.00;53.30;;;;;;4936157;29;20779;-64
2022/04/14 08:56:10;;;;;;;7.90;4.10;;;19.20;54.30;;;;;;4936268;29;20039;-64
2022/04/14 08:58:37;;;;;;;12.60;4.47;;;19.40;54.00;;;;;;4935701;29;20416;-66
2022/04/14 09:01:04;;;;;;;6.82;3.80;;;19.50;53.90;;;;;;4936213;29;20053;-69
2022/04/14 09:03:31;;;;;;;6.72;3.00;;;19.60;52.80;;;;;;4936180;29;20027;-65
2022/04/14 09:05:58;;;;;;;13.05;4.13;;;19.80;50.60;;;;;;4935719;29;20433;-64
2022/04/14 09:08:24;;;;;;;16.33;4.50;;;19.90;54.10;;;;;;4935356;29;20395;-65
2022/04/14 09:10:51;;;;;;;5.55;3.10;;;19.90;51.40;;;;;;4936102;29;20167;-65
2022/04/14 09:13:20;;;;;;;6.53;3.40;;;20.10;50.80;;;;;;4936119;29;20536;-66
2022/04/14 09:15:47;;;;;;;11.15;3.97;;;20.30;50.20;;;;;;4935922;29;20492;-64
2022/04/14 09:18:14;;;;;;;9.05;4.28;;;20.30;52.30;;;;;;4935565;29;20385;-64
2022/04/14 09:20:42;;;;;;;10.85;3.08;;;20.60;51.30;;;;;;4917006;29;20457;-64
2022/04/14 09:23:27;;;;;;;11.90;3.95;;;20.70;48.90;;;;;;4926866;29;20164;-64
2022/04/14 09:26:11;;;;;;;10.48;3.35;;;20.80;48.70;;;;;;4935564;29;20366;-64
2022/04/14 09:28:37;;;;;;;5.82;3.25;;;20.90;50.40;;;;;;4935848;29;20460;-64
2022/04/14 09:31:11;;;;;;;6.43;3.47;;;21.00;49.10;;;;;;4935768;29;20036;-64
2022/04/14 09:33:48;;;;;;;10.00;3.70;;;21.20;50.00;;;;;;4935741;29;20088;-64
2022/04/14 09:36:16;;;;;;;9.00;4.25;;;;;;;;;;4935703;29;20024;-64
2022/04/14 09:39:08;;;;;;;10.13;4.10;;;21.20;52.30;;;;;;4935689;29;20035;-64
2022/04/14 09:41:39;;;;;;;3.55;2.78;;;21.70;47.90;;;;;;4932700;29;20401;-64
2022/04/14 09:44:06;;;;;;;;;;;21.60;44.10;;;;;;4935899;29;20430;-64
2022/04/14 09:46:33;;;;;;;8.00;4.30;;;;;;;;;;4935595;29;19917;-64
2022/04/14 09:49:07;;;;;;;19.85;4.00;;;;;;;;;;4935527;29;20047;-64
2022/04/14 09:51:35;;;;;;;7.28;3.35;;;21.80;48.30;;;;;;4918340;29;20035;-64
2022/04/14 09:54:18;;;;;;;9.32;3.35;;;22.20;46.80;;;;;;4935399;29;20536;-64
2022/04/14 09:56:48;;;;;;;8.73;3.92;;;22.40;45.70;;;;;;4935599;29;20031;-64
2022/04/14 09:59:16;;;;;;;8.93;4.18;;;22.60;47.50;;;;;;4934986;29;20055;-64
2022/04/14 10:01:43;;;;;;;8.80;3.20;;;;;;;;;;4918362;29;20056;-64
2022/04/14 10:04:29;;;;;;;6.63;3.00;;;22.80;46.70;;;;;;4935557;29;20039;-64
2022/04/14 10:07:11;;;;;;;8.20;3.42;;;22.90;43.80;;;;;;4935213;29;20370;-64
2022/04/14 10:09:39;;;;;;;9.88;4.40;;;23.00;48.40;;;;;;4935363;29;20032;-64
2022/04/14 10:12:31;;;;;;;5.38;3.70;;;23.10;47.90;;;;;;4935128;29;20055;-65
2022/04/14 10:15:03;;;;;;;7.03;3.88;;;23.10;47.20;;;;;;4935400;29;20036;-65
2022/04/14 10:17:40;;;;;;;11.38;4.47;;;23.00;44.30;;;;;;4935317;29;20034;-65
2022/04/14 10:20:08;;;;;;;5.85;3.80;;;23.30;46.00;;;;;;4938048;29;20043;-65
2022/04/14 10:22:35;;;;;;;4.82;3.55;;;23.70;47.80;;;;;;4938947;29;20066;-65
2022/04/14 10:25:01;;;;;;;7.55;3.78;;;;;;;;;;4920770;29;20027;-65
2022/04/14 10:27:28;;;;;;;7.20;3.72;;;;;;;;;;4920791;29;20016;-65
2022/04/14 10:29:55;;;;;;;9.82;4.15;;;23.90;46.30;;;;;;4938239;29;20376;-65
2022/04/14 10:32:21;;;;;;;10.27;3.90;;;25.40;44.20;;;;;;4938605;29;20432;-64
2022/04/14 10:34:48;;;;;;;5.05;3.28;;;26.10;48.10;;;;;;4938703;29;20091;-65
2022/04/14 10:37:24;;;;;;;7.75;3.72;;;26.40;41.40;;;;;;4938594;29;20027;-65
2022/04/14 10:39:51;;;;;;;11.82;3.38;;;26.70;46.10;;;;;;4938609;29;20389;-66
2022/04/14 10:42:23;;;;;;;7.82;3.85;;;27.60;42.20;;;;;;4938545;29;20035;-65
2022/04/14 10:44:51;;;;;;;9.63;3.22;;;28.90;40.20;;;;;;4938561;29;20024;-65
2022/04/14 10:47:54;;;;;;;5.63;3.97;;;28.80;40.90;;;;;;4921496;29;20042;-65
2022/04/14 10:50:26;;;;;;;6.65;3.35;;;;;;;;;;4938054;29;20127;-66
2022/04/14 10:53:19;;;;;;;7.45;3.40;;;29.80;40.40;;;;;;4938641;29;20381;-65
2022/04/14 10:55:46;;;;;;;6.60;3.50;;;;;;;;;;4938424;29;20032;-65
2022/04/14 10:58:27;;;;;;;7.15;3.78;;;31.60;37.20;;;;;;4938034;29;20107;-67
2022/04/14 11:00:54;;;;;;;6.90;3.90;;;31.50;36.70;;;;;;4938558;29;20058;-67
2022/04/14 11:03:20;;;;;;;5.60;3.50;;;;;;;;;;4938268;29;20028;-66
2022/04/14 11:05:48;;;;;;;7.57;3.17;;;;;;;;;;4937705;29;20107;-67
2022/04/14 11:08:20;;;;;;;15.15;4.13;;;;;;;;;;4937690;29;20031;-67
2022/04/14 11:11:09;;;;;;;8.32;3.70;;;32.90;34.50;;;;;;4937245;29;20027;-67
2022/04/14 11:13:51;;;;;;;7.68;3.72;;;;;;;;;;4937871;29;20119;-67
2022/04/14 11:16:35;;;;;;;;;;;33.60;35.40;;;;;;4938418;29;20059;-67
2022/04/14 11:19:20;;;;;;;7.22;3.40;;;33.80;34.70;;;;;;4920859;29;20027;-67
2022/04/14 11:22:05;;;;;;;10.65;3.40;;;;;;;;;;4920379;29;20024;-67
2022/04/14 11:24:40;;;;;;;5.47;3.40;;;;;;;;;;4937841;29;20091;-67
2022/04/14 11:27:26;;;;;;;6.40;3.20;;;;;;;;;;4937885;29;20062;-67
2022/04/14 11:29:57;;;;;;;3.63;3.33;;;35.50;32.30;;;;;;4937312;29;20382;-67
2022/04/14 11:32:40;;;;;;;4.85;3.15;;;35.50;32.80;;;;;;4937596;29;20121;-68
2022/04/14 11:35:09;;;;;;;7.20;3.38;;;35.40;32.10;;;;;;4938004;29;20075;-68
2022/04/14 11:37:46;;;;;;;4.75;3.15;;;36.10;32.40;;;;;;4937644;29;20421;-67
2022/04/14 11:40:22;;;;;;;3.83;3.47;;;36.40;32.20;;;;;;4937462;29;20123;-68
2022/04/14 11:42:58;;;;;;;8.68;3.30;;;36.40;41.70;;;;;;4937496;29;20115;-65
2022/04/14 11:45:25;;;;;;;5.15;2.83;;;36.40;42.60;;;;;;4937435;29;20469;-65
2022/04/14 11:47:54;;;;;;;10.10;3.08;;;;;;;;;;4937186;29;20058;-68
2022/04/14 11:50:25;;;;;;;4.03;2.75;;;36.70;43.30;;;;;;4937262;29;20016;-67
2022/04/14 11:53:03;;;;;;;7.90;3.27;;;37.80;31.50;;;;;;4937352;29;20083;-67
2022/04/14 11:55:42;;;;;;;4.22;2.65;;;;;;;;;;4937283;29;20054;-67
2022/04/14 11:58:13;;;;;;;3.42;2.63;;;38.30;48.30;;;;;;4936874;29;20052;-67
2022/04/14 12:00:46;;;;;;;;;;;37.30;37.00;;;;;;4937638;29;20075;-68
2022/04/14 12:03:13;;;;;;;5.88;2.80;;;37.40;33.70;;;;;;4937261;29;19958;-68
2022/04/14 12:05:40;;;;;;;7.40;3.17;;;37.90;33.00;;;;;;4937139;29;20107;-68
2022/04/14 12:08:12;;;;;;;6.57;2.75;;;38.40;30.90;;;;;;4937176;29;20076;-68
2022/04/14 12:10:38;;;;;;;7.10;2.90;;;38.30;29.50;;;;;;4936953;29;20042;-68
2022/04/14 12:13:08;;;;;;;4.63;3.13;;;;;;;;;;4937033;29;20111;-68
2022/04/14 12:15:34;;;;;;;4.28;2.60;;;38.40;30.60;;;;;;4936933;29;20461;-68
2022/04/14 12:18:08;;;;;;;11.90;2.88;;;37.70;31.90;;;;;;4936624;29;20099;-68
2022/04/14 12:20:40;;;;;;;4.88;2.67;;;38.60;31.30;;;;;;4937028;29;20082;-68
2022/04/14 12:23:10;;;;;;;5.43;4.20;;;37.70;31.80;;;;;;4936950;29;20027;-69
2022/04/14 12:25:38;;;;;;;5.93;2.83;;;38.20;32.70;;;;;;4936748;29;20023;-68
2022/04/14 12:28:06;;;;;;;15.48;3.03;;;39.00;31.50;;;;;;4936697;29;20054;-68
2022/04/14 12:30:32;;;;;;;5.65;2.65;;;39.90;29.00;;;;;;4936747;29;20028;-68
2022/04/14 12:33:03;;;;;;;4.35;2.70;;;39.30;30.20;;;;;;4936889;29;20035;-69
2022/04/14 12:35:36;;;;;;;2.53;2.25;;;40.20;30.00;;;;;;4936631;29;20444;-66
2022/04/14 12:38:32;;;;;;;3.15;2.63;;;;;;;;;;4936531;29;20035;-66
2022/04/14 12:41:00;;;;;;;4.40;2.42;;;40.80;29.40;;;;;;4877471;29;20044;-67
2022/04/14 12:43:28;;;;;;;3.55;2.55;;;40.40;29.40;;;;;;4877486;29;20033;-66
2022/04/14 12:45:57;;;;;;;4.85;2.70;;;40.60;30.10;;;;;;4877617;29;20059;-67
2022/04/14 12:48:37;;;;;;;4.18;2.47;;;41.00;29.80;;;;;;4877702;29;20068;-66
2022/04/14 12:51:03;;;;;;;3.13;2.40;;;40.70;28.80;;;;;;4877498;29;20085;-67
2022/04/14 12:53:29;;;;;;;3.00;2.70;;;41.10;29.10;;;;;;4877388;29;20505;-66
2022/04/14 12:56:15;;;;;;;5.03;2.30;;;41.80;29.10;;;;;;4877290;29;20041;-66
2022/04/14 12:59:18;;;;;;;3.60;2.28;;;42.40;28.60;;;;;;4877062;29;20060;-66
2022/04/14 13:01:51;;;;;;;5.07;2.30;;;42.40;28.60;;;;;;4877271;29;20036;-66
2022/04/14 13:04:19;;;;;;;2.42;2.22;;;42.50;38.10;;;;;;4877356;29;20037;-66
2022/04/14 13:07:05;;;;;;;3.42;2.63;;;42.20;27.90;;;;;;4877220;29;20025;-66
2022/04/14 13:09:32;;;;;;;2.47;2.17;;;;;;;;;;4877313;29;20036;-67
2022/04/14 13:11:58;;;;;;;6.43;2.30;;;;;;;;;;4877217;29;20048;-67
2022/04/14 13:14:26;;;;;;;5.28;2.85;;;41.70;28.10;;;;;;4877258;29;20036;-66
2022/04/14 13:16:55;;;;;;;3.33;2.40;;;41.50;28.10;;;;;;4895009;29;20059;-66
2022/04/14 13:19:21;;;;;;;7.07;2.72;;;;;;;;;;4935937;29;20074;-66
2022/04/14 13:21:47;;;;;;;6.47;2.40;;;42.50;29.00;;;;;;4918737;29;20545;-66
2022/04/14 13:24:13;;;;;;;17.10;3.25;;;43.10;28.70;;;;;;4935831;29;20031;-66
2022/04/14 13:26:40;;;;;;;3.75;2.40;;;;;;;;;;4935821;29;20050;-67
2022/04/14 13:29:08;;;;;;;2.40;2.20;;;43.50;28.50;;;;;;4935797;29;20481;-67
2022/04/14 13:31:34;;;;;;;5.75;2.30;;;43.70;28.10;;;;;;4918764;29;20534;-67
2022/04/14 13:34:00;;;;;;;6.72;2.00;;;42.50;27.70;;;;;;4935779;29;20083;-67
2022/04/14 13:36:28;;;;;;;2.58;2.38;;;43.60;27.50;;;;;;4936412;29;20028;-68
2022/04/14 13:38:54;;;;;;;3.00;2.35;;;44.00;27.90;;;;;;4936008;29;20031;-70
2022/04/14 13:41:20;;;;;;;3.13;2.25;;;44.10;28.50;;;;;;4934883;29;20028;-65
2022/04/14 13:43:46;;;;;;;2.25;2.05;;;44.10;27.40;;;;;;4931084;29;20047;-67
2022/04/14 13:46:12;;;;;;;16.50;4.25;;;43.20;27.50;;;;;;4916260;29;20067;-67
2022/04/14 13:48:38;;;;;;;4.43;2.50;;;43.40;27.80;;;;;;4916587;29;20426;-67